Terminal Aerodrome Forecast
Issued by NWS

Home | Current Version | Previous Version | Text Only | Print | Product List | Glossary On
Versions: 1 2 3 4 5 6 7 8 9 10 11 12 13 14 15 16 17 18
207
FTUS43 KDTX 270353 AAA
TAFDET
TAF AMD
KDET 270353Z 2704/2724 29006KT P6SM SCT070
     FM270900 29011KT P6SM SKC
     FM271700 30012KT P6SM BKN060
     FM272300 27008KT P6SM SCT050=

USA.gov is the U.S. government's official web portal to all federal, state and local government web resources and services.